sensor_id;sensor_type;location;lat;lon;timestamp;pressure;altitude;pressure_sealevel;temperature;humidity
3796;BME280;1913;50.660;7.834;2023-07-20T00:00:33;151777.66;;;15.13;100.00
3796;BME280;1913;50.660;7.834;2023-07-20T00:03:12;151772.59;;;15.11;100.00
3796;BME280;1913;50.660;7.834;2023-07-20T00:05:43;151739.88;;;14.98;100.00
3796;BME280;1913;50.660;7.834;2023-07-20T00:08:09;151720.94;;;14.90;100.00
3796;BME280;1913;50.660;7.834;2023-07-20T00:10:34;151709.59;;;14.85;100.00
3796;BME280;1913;50.660;7.834;2023-07-20T00:12:59;151695.78;;;14.80;100.00
3796;BME280;1913;50.660;7.834;2023-07-20T00:15:25;151680.63;;;14.74;100.00
3796;BME280;1913;50.660;7.834;2023-07-20T00:17:50;151679.38;;;14.73;100.00
3796;BME280;1913;50.660;7.834;2023-07-20T00:20:16;151657.94;;;14.65;100.00
3796;BME280;1913;50.660;7.834;2023-07-20T00:22:42;151612.53;;;14.46;100.00
3796;BME280;1913;50.660;7.834;2023-07-20T00:25:07;151603.72;;;14.43;100.00
3796;BME280;1913;50.660;7.834;2023-07-20T00:27:33;151582.31;;;14.34;100.00
3796;BME280;1913;50.660;7.834;2023-07-20T00:29:58;151594.91;;;14.39;100.00
3796;BME280;1913;50.660;7.834;2023-07-20T00:32:24;151620.09;;;14.49;100.00
3796;BME280;1913;50.660;7.834;2023-07-20T00:34:49;151604.97;;;14.43;100.00
3796;BME280;1913;50.660;7.834;2023-07-20T00:37:14;151612.53;;;14.46;100.00
3796;BME280;1913;50.660;7.834;2023-07-20T00:39:40;151616.31;;;14.48;100.00
3796;BME280;1913;50.660;7.834;2023-07-20T00:42:05;151634.00;;;14.55;100.00
3796;BME280;1913;50.660;7.834;2023-07-20T00:44:31;151634.00;;;14.55;100.00
3796;BME280;1913;50.660;7.834;2023-07-20T00:46:56;151657.94;;;14.65;100.00
3796;BME280;1913;50.660;7.834;2023-07-20T00:49:22;151616.31;;;14.48;100.00
3796;BME280;1913;50.660;7.834;2023-07-20T00:51:49;151659.19;;;14.65;100.00
3796;BME280;1913;50.660;7.834;2023-07-20T00:54:15;151649.13;;;14.61;100.00
3796;BME280;1913;50.660;7.834;2023-07-20T00:56:41;151671.81;;;14.70;100.00
3796;BME280;1913;50.660;7.834;2023-07-20T00:59:07;151684.41;;;14.75;100.00
3796;BME280;1913;50.660;7.834;2023-07-20T01:01:32;151660.50;;;14.66;100.00
3796;BME280;1913;50.660;7.834;2023-07-20T01:03:58;151665.50;;;14.68;100.00
3796;BME280;1913;50.660;7.834;2023-07-20T01:09:19;151635.28;;;14.55;100.00
3796;BME280;1913;50.660;7.834;2023-07-20T01:14:18;151654.19;;;14.63;100.00
3796;BME280;1913;50.660;7.834;2023-07-20T01:16:43;151675.56;;;14.72;100.00
3796;BME280;1913;50.660;7.834;2023-07-20T01:19:09;151686.94;;;14.76;100.00
3796;BME280;1913;50.660;7.834;2023-07-20T01:21:45;151691.97;;;14.78;100.00
3796;BME280;1913;50.660;7.834;2023-07-20T01:26:57;151697.03;;;14.80;100.00
3796;BME280;1913;50.660;7.834;2023-07-20T01:32:11;151694.47;;;14.79;100.00
3796;BME280;1913;50.660;7.834;2023-07-20T01:34:38;151670.56;;;14.70;100.00
3796;BME280;1913;50.660;7.834;2023-07-20T01:37:06;151700.78;;;14.82;100.00
3796;BME280;1913;50.660;7.834;2023-07-20T01:39:32;151675.56;;;14.72;100.00
3796;BME280;1913;50.660;7.834;2023-07-20T01:41:58;151663.00;;;14.67;100.00
3796;BME280;1913;50.660;7.834;2023-07-20T01:44:24;151664.25;;;14.67;100.00
3796;BME280;1913;50.660;7.834;2023-07-20T01:46:49;151671.81;;;14.70;100.00
3796;BME280;1913;50.660;7.834;2023-07-20T01:49:14;151657.94;;;14.65;100.00
3796;BME280;1913;50.660;7.834;2023-07-20T01:51:40;151644.09;;;14.59;100.00
3796;BME280;1913;50.660;7.834;2023-07-20T01:54:06;151625.16;;;14.51;100.00
3796;BME280;1913;50.660;7.834;2023-07-20T01:56:32;151630.22;;;14.53;100.00
3796;BME280;1913;50.660;7.834;2023-07-20T01:58:57;151598.66;;;14.41;100.00
3796;BME280;1913;50.660;7.834;2023-07-20T02:01:23;151606.22;;;14.44;100.00
3796;BME280;1913;50.660;7.834;2023-07-20T02:03:48;151607.47;;;14.44;100.00
3796;BME280;1913;50.660;7.834;2023-07-20T02:06:13;151601.22;;;14.42;100.00
3796;BME280;1913;50.660;7.834;2023-07-20T02:08:39;151627.72;;;14.52;100.00
3796;BME280;1913;50.660;7.834;2023-07-20T02:11:04;151640.31;;;14.57;100.00
3796;BME280;1913;50.660;7.834;2023-07-20T02:13:30;151627.72;;;14.52;100.00
3796;BME280;1913;50.660;7.834;2023-07-20T02:15:55;151647.88;;;14.60;100.00
3796;BME280;1913;50.660;7.834;2023-07-20T02:18:20;151631.47;;;14.54;100.00
3796;BME280;1913;50.660;7.834;2023-07-20T02:20:46;151644.09;;;14.59;100.00
3796;BME280;1913;50.660;7.834;2023-07-20T02:23:11;151604.97;;;14.43;100.00
3796;BME280;1913;50.660;7.834;2023-07-20T02:25:37;151603.72;;;14.43;100.00
3796;BME280;1913;50.660;7.834;2023-07-20T02:28:04;151631.47;;;14.54;100.00
3796;BME280;1913;50.660;7.834;2023-07-20T02:30:29;151641.56;;;14.58;100.00
3796;BME280;1913;50.660;7.834;2023-07-20T02:32:54;151673.06;;;14.71;100.00
3796;BME280;1913;50.660;7.834;2023-07-20T02:35:24;151693.22;;;14.79;100.00
3796;BME280;1913;50.660;7.834;2023-07-20T02:37:49;151686.94;;;14.76;100.00
3796;BME280;1913;50.660;7.834;2023-07-20T02:40:14;151654.19;;;14.63;100.00
3796;BME280;1913;50.660;7.834;2023-07-20T02:42:40;151664.25;;;14.67;100.00
3796;BME280;1913;50.660;7.834;2023-07-20T02:45:06;151689.47;;;14.77;100.00
3796;BME280;1913;50.660;7.834;2023-07-20T02:47:31;151655.44;;;14.64;100.00
3796;BME280;1913;50.660;7.834;2023-07-20T02:49:57;151646.63;;;14.60;100.00
3796;BME280;1913;50.660;7.834;2023-07-20T02:52:22;151641.56;;;14.58;100.00
3796;BME280;1913;50.660;7.834;2023-07-20T02:54:49;151654.19;;;14.63;100.00
3796;BME280;1913;50.660;7.834;2023-07-20T02:57:14;151644.09;;;14.59;100.00
3796;BME280;1913;50.660;7.834;2023-07-20T02:59:39;151646.63;;;14.60;100.00
3796;BME280;1913;50.660;7.834;2023-07-20T03:02:05;151621.41;;;14.50;100.00
3796;BME280;1913;50.660;7.834;2023-07-20T03:04:30;151601.22;;;14.42;100.00
3796;BME280;1913;50.660;7.834;2023-07-20T03:06:56;151594.91;;;14.39;100.00
3796;BME280;1913;50.660;7.834;2023-07-20T03:09:21;151579.78;;;14.33;100.00
3796;BME280;1913;50.660;7.834;2023-07-20T03:11:47;151593.66;;;14.38;100.00
3796;BME280;1913;50.660;7.834;2023-07-20T03:14:12;151588.59;;;14.36;100.00
3796;BME280;1913;50.660;7.834;2023-07-20T03:16:38;151558.38;;;14.24;100.00
3796;BME280;1913;50.660;7.834;2023-07-20T03:19:03;151583.59;;;14.34;100.00
3796;BME280;1913;50.660;7.834;2023-07-20T03:21:30;151593.66;;;14.38;100.00
3796;BME280;1913;50.660;7.834;2023-07-20T03:23:55;151573.50;;;14.30;100.00
3796;BME280;1913;50.660;7.834;2023-07-20T03:26:20;151604.97;;;14.43;100.00
3796;BME280;1913;50.660;7.834;2023-07-20T03:28:46;151607.47;;;14.44;100.00
3796;BME280;1913;50.660;7.834;2023-07-20T03:31:11;151588.59;;;14.36;100.00
3796;BME280;1913;50.660;7.834;2023-07-20T03:33:37;151581.03;;;14.33;100.00
3796;BME280;1913;50.660;7.834;2023-07-20T03:36:02;151581.03;;;14.33;100.00
3796;BME280;1913;50.660;7.834;2023-07-20T03:38:28;151577.28;;;14.32;100.00
3796;BME280;1913;50.660;7.834;2023-07-20T03:40:58;151545.75;;;14.19;100.00
3796;BME280;1913;50.660;7.834;2023-07-20T03:43:25;151548.31;;;14.20;100.00
3796;BME280;1913;50.660;7.834;2023-07-20T03:45:51;151570.97;;;14.29;100.00
3796;BME280;1913;50.660;7.834;2023-07-20T03:48:19;151545.75;;;14.19;100.00
3796;BME280;1913;50.660;7.834;2023-07-20T03:50:45;151589.84;;;14.37;100.00
3796;BME280;1913;50.660;7.834;2023-07-20T03:53:15;151597.41;;;14.40;100.00
3796;BME280;1913;50.660;7.834;2023-07-20T03:55:48;151613.78;;;14.47;100.00
3796;BME280;1913;50.660;7.834;2023-07-20T03:58:14;151631.47;;;14.54;100.00
3796;BME280;1913;50.660;7.834;2023-07-20T04:00:39;151598.66;;;14.41;100.00
3796;BME280;1913;50.660;7.834;2023-07-20T04:03:06;151617.59;;;14.48;100.00
3796;BME280;1913;50.660;7.834;2023-07-20T04:05:31;151593.66;;;14.38;100.00
3796;BME280;1913;50.660;7.834;2023-07-20T04:07:58;151578.53;;;14.32;100.00
3796;BME280;1913;50.660;7.834;2023-07-20T04:10:23;151564.69;;;14.27;100.00
3796;BME280;1913;50.660;7.834;2023-07-20T04:12:49;151579.78;;;14.33;100.00
3796;BME280;1913;50.660;7.834;2023-07-20T04:15:14;151598.66;;;14.41;100.00
3796;BME280;1913;50.660;7.834;2023-07-20T04:17:40;151602.47;;;14.42;100.00
3796;BME280;1913;50.660;7.834;2023-07-20T04:20:07;151608.78;;;14.45;100.00
3796;BME280;1913;50.660;7.834;2023-07-20T04:22:32;151623.91;;;14.51;100.00
3796;BME280;1913;50.660;7.834;2023-07-20T04:24:58;151636.53;;;14.56;100.00
3796;BME280;1913;50.660;7.834;2023-07-20T04:27:23;151623.91;;;14.51;100.00
3796;BME280;1913;50.660;7.834;2023-07-20T04:29:49;151635.28;;;14.55;100.00
3796;BME280;1913;50.660;7.834;2023-07-20T04:32:14;151612.53;;;14.46;100.00
3796;BME280;1913;50.660;7.834;2023-07-20T04:34:39;151620.09;;;14.49;100.00
3796;BME280;1913;50.660;7.834;2023-07-20T04:37:06;151637.78;;;14.56;100.00
3796;BME280;1913;50.660;7.834;2023-07-20T04:39:31;151623.91;;;14.51;100.00
3796;BME280;1913;50.660;7.834;2023-07-20T04:41:57;151679.38;;;14.73;100.00
3796;BME280;1913;50.660;7.834;2023-07-20T04:44:23;151665.50;;;14.68;100.00
3796;BME280;1913;50.660;7.834;2023-07-20T04:46:48;151680.63;;;14.74;100.00
3796;BME280;1913;50.660;7.834;2023-07-20T04:49:13;151686.94;;;14.76;100.00
3796;BME280;1913;50.660;7.834;2023-07-20T04:51:39;151679.38;;;14.73;100.00
3796;BME280;1913;50.660;7.834;2023-07-20T04:54:04;151715.91;;;14.88;100.00
3796;BME280;1913;50.660;7.834;2023-07-20T04:56:30;151699.53;;;14.81;100.00
3796;BME280;1913;50.660;7.834;2023-07-20T04:58:56;151708.34;;;14.85;100.00
3796;BME280;1913;50.660;7.834;2023-07-20T05:01:22;151723.50;;;14.91;100.00
3796;BME280;1913;50.660;7.834;2023-07-20T05:03:48;151737.31;;;14.97;100.00
3796;BME280;1913;50.660;7.834;2023-07-20T05:06:13;151738.56;;;14.97;100.00
3796;BME280;1913;50.660;7.834;2023-07-20T05:08:39;151733.56;;;14.95;100.00
3796;BME280;1913;50.660;7.834;2023-07-20T05:11:04;151748.69;;;15.01;100.00
3796;BME280;1913;50.660;7.834;2023-07-20T05:13:30;151776.41;;;15.13;100.00
3796;BME280;1913;50.660;7.834;2023-07-20T05:15:55;151748.69;;;15.01;100.00
3796;BME280;1913;50.660;7.834;2023-07-20T05:18:20;151743.63;;;14.99;100.00
3796;BME280;1913;50.660;7.834;2023-07-20T05:20:50;151797.81;;;15.21;100.00
3796;BME280;1913;50.660;7.834;2023-07-20T05:23:17;151815.47;;;15.28;100.00
3796;BME280;1913;50.660;7.834;2023-07-20T05:25:43;151836.94;;;15.37;100.00
3796;BME280;1913;50.660;7.834;2023-07-20T05:28:09;151807.91;;;15.25;100.00
3796;BME280;1913;50.660;7.834;2023-07-20T05:30:34;151800.31;;;15.22;100.00
3796;BME280;1913;50.660;7.834;2023-07-20T05:33:00;151826.81;;;15.33;100.00
3796;BME280;1913;50.660;7.834;2023-07-20T05:35:26;151824.28;;;15.32;100.00
3796;BME280;1913;50.660;7.834;2023-07-20T05:37:51;151811.72;;;15.27;100.00
3796;BME280;1913;50.660;7.834;2023-07-20T05:40:17;151826.81;;;15.33;100.00
3796;BME280;1913;50.660;7.834;2023-07-20T05:42:47;151815.47;;;15.28;100.00
3796;BME280;1913;50.660;7.834;2023-07-20T05:45:14;151794.06;;;15.20;100.00
3796;BME280;1913;50.660;7.834;2023-07-20T05:47:40;151794.06;;;15.20;100.00
3796;BME280;1913;50.660;7.834;2023-07-20T05:50:06;151839.44;;;15.38;100.00
3796;BME280;1913;50.660;7.834;2023-07-20T05:52:32;151831.88;;;15.35;100.00
3796;BME280;1913;50.660;7.834;2023-07-20T05:54:58;151848.25;;;15.42;100.00
3796;BME280;1913;50.660;7.834;2023-07-20T05:57:23;151877.22;;;15.53;100.00
3796;BME280;1913;50.660;7.834;2023-07-20T05:59:48;151860.84;;;15.47;100.00
3796;BME280;1913;50.660;7.834;2023-07-20T06:02:14;151906.22;;;15.65;100.00
3796;BME280;1913;50.660;7.834;2023-07-20T06:04:39;151936.56;;;15.77;100.00
3796;BME280;1913;50.660;7.834;2023-07-20T06:07:05;151974.38;;;15.93;100.00
3796;BME280;1913;50.660;7.834;2023-07-20T06:09:32;151892.38;;;15.60;100.00
3796;BME280;1913;50.660;7.834;2023-07-20T06:11:58;151847.00;;;15.41;100.00
3796;BME280;1913;50.660;7.834;2023-07-20T06:14:23;151896.13;;;15.61;100.00
3796;BME280;1913;50.660;7.834;2023-07-20T06:16:48;151944.13;;;15.80;100.00
3796;BME280;1913;50.660;7.834;2023-07-20T06:19:15;151926.47;;;15.73;100.00
3796;BME280;1913;50.660;7.834;2023-07-20T06:21:41;151920.16;;;15.71;100.00
3796;BME280;1913;50.660;7.834;2023-07-20T06:24:07;151960.53;;;15.87;100.00
3796;BME280;1913;50.660;7.834;2023-07-20T06:26:33;151957.97;;;15.86;100.00
3796;BME280;1913;50.660;7.834;2023-07-20T06:29:04;152031.13;;;16.16;100.00
3796;BME280;1913;50.660;7.834;2023-07-20T06:31:29;152010.94;;;16.08;100.00
3796;BME280;1913;50.660;7.834;2023-07-20T06:33:54;151990.75;;;15.99;100.00
3796;BME280;1913;50.660;7.834;2023-07-20T06:36:20;152043.72;;;16.21;100.00
3796;BME280;1913;50.660;7.834;2023-07-20T06:38:45;152057.63;;;16.26;100.00
3796;BME280;1913;50.660;7.834;2023-07-20T06:41:10;152017.25;;;16.10;100.00
3796;BME280;1913;50.660;7.834;2023-07-20T06:43:36;152097.97;;;16.43;100.00
3796;BME280;1913;50.660;7.834;2023-07-20T06:46:01;152193.88;;;16.82;100.00
3796;BME280;1913;50.660;7.834;2023-07-20T06:48:26;152209.03;;;16.88;100.00
3796;BME280;1913;50.660;7.834;2023-07-20T06:50:52;152106.78;;;16.46;100.00
3796;BME280;1913;50.660;7.834;2023-07-20T06:53:17;152092.94;;;16.41;100.00
3796;BME280;1913;50.660;7.834;2023-07-20T06:55:43;152116.88;;;16.50;100.00
3796;BME280;1913;50.660;7.834;2023-07-20T06:58:09;152100.50;;;16.44;100.00
3796;BME280;1913;50.660;7.834;2023-07-20T07:00:34;152144.66;;;16.62;100.00
3796;BME280;1913;50.660;7.834;2023-07-20T07:03:00;152159.78;;;16.68;100.00
3796;BME280;1913;50.660;7.834;2023-07-20T07:05:26;152272.13;;;17.13;100.00
3796;BME280;1913;50.660;7.834;2023-07-20T07:07:51;152320.09;;;17.33;100.00
3796;BME280;1913;50.660;7.834;2023-07-20T07:10:16;152582.72;;;18.39;100.00
3796;BME280;1913;50.660;7.834;2023-07-20T07:12:43;152676.25;;;18.77;100.00
3796;BME280;1913;50.660;7.834;2023-07-20T07:15:09;152735.63;;;19.01;100.00
3796;BME280;1913;50.660;7.834;2023-07-20T07:17:36;152620.63;;;18.54;100.00
3796;BME280;1913;50.660;7.834;2023-07-20T07:20:01;152582.72;;;18.39;100.00
3796;BME280;1913;50.660;7.834;2023-07-20T07:22:27;152547.34;;;18.25;100.00
3796;BME280;1913;50.660;7.834;2023-07-20T07:24:52;152738.16;;;19.02;100.00
3796;BME280;1913;50.660;7.834;2023-07-20T07:27:19;152812.72;;;19.32;100.00
3796;BME280;1913;50.660;7.834;2023-07-20T07:29:44;152853.13;;;19.48;100.00
3796;BME280;1913;50.660;7.834;2023-07-20T07:32:10;152730.56;;;18.99;100.00
3796;BME280;1913;50.660;7.834;2023-07-20T07:34:36;152695.19;;;18.84;100.00
3796;BME280;1913;50.660;7.834;2023-07-20T07:37:01;152522.16;;;18.14;100.00
3796;BME280;1913;50.660;7.834;2023-07-20T07:39:27;152549.91;;;18.26;100.00
3796;BME280;1913;50.660;7.834;2023-07-20T07:41:55;152580.19;;;18.38;100.00
3796;BME280;1913;50.660;7.834;2023-07-20T07:44:20;152645.91;;;18.64;100.00
3796;BME280;1913;50.660;7.834;2023-07-20T07:46:46;152743.22;;;19.04;100.00
3796;BME280;1913;50.660;7.834;2023-07-20T07:49:12;152934.06;;;19.81;100.00
3796;BME280;1913;50.660;7.834;2023-07-20T07:51:37;153040.25;;;20.24;100.00
3796;BME280;1913;50.660;7.834;2023-07-20T07:54:02;153149.06;;;20.68;100.00
3796;BME280;1913;50.660;7.834;2023-07-20T07:56:28;153112.41;;;20.53;100.00
3796;BME280;1913;50.660;7.834;2023-07-20T07:58:53;153166.75;;;20.75;100.00
3796;BME280;1913;50.660;7.834;2023-07-20T08:01:19;153207.22;;;20.91;100.00
3796;BME280;1913;50.660;7.834;2023-07-20T08:03:45;153261.63;;;21.13;100.00
3796;BME280;1913;50.660;7.834;2023-07-20T08:06:13;153180.66;;;20.80;100.00
3796;BME280;1913;50.660;7.834;2023-07-20T08:08:38;152969.44;;;19.95;100.00
3796;BME280;1913;50.660;7.834;2023-07-20T08:11:04;153141.47;;;20.65;100.00
3796;BME280;1913;50.660;7.834;2023-07-20T08:13:29;153290.72;;;21.25;100.00
3796;BME280;1913;50.660;7.834;2023-07-20T08:15:55;153324.94;;;21.39;100.00
3796;BME280;1913;50.660;7.834;2023-07-20T08:18:20;153233.78;;;21.02;100.00
3796;BME280;1913;50.660;7.834;2023-07-20T08:20:46;153080.72;;;20.40;100.00
3796;BME280;1913;50.660;7.834;2023-07-20T08:23:12;152925.22;;;19.77;100.00
3796;BME280;1913;50.660;7.834;2023-07-20T08:25:38;152873.34;;;19.56;100.00
3796;BME280;1913;50.660;7.834;2023-07-20T08:28:07;152767.19;;;19.13;100.00
3796;BME280;1913;50.660;7.834;2023-07-20T08:30:40;152883.47;;;19.60;100.00
3796;BME280;1913;50.660;7.834;2023-07-20T08:33:06;153092.09;;;20.45;100.00
3796;BME280;1913;50.660;7.834;2023-07-20T08:35:32;153331.22;;;21.41;100.00
3796;BME280;1913;50.660;7.834;2023-07-20T08:37:57;153518.59;;;22.17;99.82
3796;BME280;1913;50.660;7.834;2023-07-20T08:40:22;153642.63;;;22.67;88.58
3796;BME280;1913;50.660;7.834;2023-07-20T08:42:49;153531.22;;;22.22;93.30
3796;BME280;1913;50.660;7.834;2023-07-20T08:45:16;153426.13;;;21.80;97.16
3796;BME280;1913;50.660;7.834;2023-07-20T08:47:43;153332.53;;;21.42;97.60
3796;BME280;1913;50.660;7.834;2023-07-20T08:50:09;153059.25;;;20.31;100.00
3796;BME280;1913;50.660;7.834;2023-07-20T08:52:36;153246.44;;;21.07;100.00
3796;BME280;1913;50.660;7.834;2023-07-20T08:55:02;153227.47;;;20.99;100.00
3796;BME280;1913;50.660;7.834;2023-07-20T08:57:30;153397.03;;;21.68;96.45
3796;BME280;1913;50.660;7.834;2023-07-20T08:59:58;153573.00;;;22.39;92.88
3796;BME280;1913;50.660;7.834;2023-07-20T09:02:25;153607.19;;;22.53;91.57
3796;BME280;1913;50.660;7.834;2023-07-20T09:04:52;153367.94;;;21.56;100.00
3796;BME280;1913;50.660;7.834;2023-07-20T09:07:18;153403.38;;;21.70;97.27
3796;BME280;1913;50.660;7.834;2023-07-20T09:09:45;153497.00;;;22.08;100.00
3796;BME280;1913;50.660;7.834;2023-07-20T09:12:14;153768.03;;;23.17;88.43
3796;BME280;1913;50.660;7.834;2023-07-20T09:14:42;153970.75;;;23.99;78.64
3796;BME280;1913;50.660;7.834;2023-07-20T09:17:13;154020.19;;;24.19;68.11
3796;BME280;1913;50.660;7.834;2023-07-20T09:19:38;154035.34;;;24.25;59.49
3796;BME280;1913;50.660;7.834;2023-07-20T09:22:05;154093.72;;;24.49;56.96
3796;BME280;1913;50.660;7.834;2023-07-20T09:24:31;154295.31;;;25.30;55.61
3796;BME280;1913;50.660;7.834;2023-07-20T09:27:01;154445.00;;;25.90;51.06
3796;BME280;1913;50.660;7.834;2023-07-20T09:29:29;154425.94;;;25.83;51.08
3796;BME280;1913;50.660;7.834;2023-07-20T09:32:02;154065.81;;;24.37;54.07
3796;BME280;1913;50.660;7.834;2023-07-20T09:34:29;154136.81;;;24.66;57.30
3796;BME280;1913;50.660;7.834;2023-07-20T09:36:57;154207.78;;;24.95;53.42
3796;BME280;1913;50.660;7.834;2023-07-20T09:39:23;154222.97;;;25.01;53.23
3796;BME280;1913;50.660;7.834;2023-07-20T09:41:49;154248.38;;;25.11;51.33
3796;BME280;1913;50.660;7.834;2023-07-20T09:44:15;154446.25;;;25.91;51.46
3796;BME280;1913;50.660;7.834;2023-07-20T09:46:45;154351.09;;;25.52;50.17
3796;BME280;1913;50.660;7.834;2023-07-20T09:49:11;154196.34;;;24.90;50.39
3796;BME280;1913;50.660;7.834;2023-07-20T09:51:37;154015.09;;;24.17;52.80
3796;BME280;1913;50.660;7.834;2023-07-20T09:54:03;154015.09;;;24.17;50.37
3796;BME280;1913;50.660;7.834;2023-07-20T09:56:30;154025.22;;;24.21;50.03
3796;BME280;1913;50.660;7.834;2023-07-20T09:58:56;153991.00;;;24.07;49.51
3796;BME280;1913;50.660;7.834;2023-07-20T10:01:22;153936.53;;;23.85;50.85
3796;BME280;1913;50.660;7.834;2023-07-20T10:03:49;153730.06;;;23.02;56.25
3796;BME280;1913;50.660;7.834;2023-07-20T10:06:23;153870.63;;;23.59;59.74
3796;BME280;1913;50.660;7.834;2023-07-20T10:08:52;153852.91;;;23.52;64.21
3796;BME280;1913;50.660;7.834;2023-07-20T10:11:21;153857.94;;;23.54;67.09
3796;BME280;1913;50.660;7.834;2023-07-20T10:13:51;153887.06;;;23.65;55.10
3796;BME280;1913;50.660;7.834;2023-07-20T10:16:27;154004.97;;;24.13;53.70
3796;BME280;1913;50.660;7.834;2023-07-20T10:19:17;154078.50;;;24.43;52.21
3796;BME280;1913;50.660;7.834;2023-07-20T10:21:54;154372.63;;;25.61;49.32
3796;BME280;1913;50.660;7.834;2023-07-20T10:24:22;154338.44;;;25.47;43.00
3796;BME280;1913;50.660;7.834;2023-07-20T10:26:49;154373.94;;;25.62;43.31
3796;BME280;1913;50.660;7.834;2023-07-20T10:29:14;154455.16;;;25.94;42.83
3796;BME280;1913;50.660;7.834;2023-07-20T10:31:40;154049.31;;;24.31;47.82
3796;BME280;1913;50.660;7.834;2023-07-20T10:34:06;154072.16;;;24.40;47.96
3796;BME280;1913;50.660;7.834;2023-07-20T10:36:31;154195.09;;;24.90;47.54
3796;BME280;1913;50.660;7.834;2023-07-20T10:38:57;154353.63;;;25.53;46.48
3796;BME280;1913;50.660;7.834;2023-07-20T10:41:34;154205.22;;;24.94;47.63
3796;BME280;1913;50.660;7.834;2023-07-20T10:44:08;154221.72;;;25.00;44.31
3796;BME280;1913;50.660;7.834;2023-07-20T10:46:42;154367.59;;;25.59;40.76
3796;BME280;1913;50.660;7.834;2023-07-20T10:49:10;154055.66;;;24.33;43.23
3796;BME280;1913;50.660;7.834;2023-07-20T10:51:40;153973.28;;;24.00;45.46
3796;BME280;1913;50.660;7.834;2023-07-20T10:57:50;154008.75;;;24.14;45.37
3796;BME280;1913;50.660;7.834;2023-07-20T11:00:13;154245.81;;;25.10;43.59
3796;BME280;1913;50.660;7.834;2023-07-20T11:02:46;154441.16;;;25.89;40.70
3796;BME280;1913;50.660;7.834;2023-07-20T11:05:38;154684.81;;;26.87;38.86
3796;BME280;1913;50.660;7.834;2023-07-20T11:08:08;154782.56;;;27.26;37.09
3796;BME280;1913;50.660;7.834;2023-07-20T11:10:35;154616.28;;;26.59;38.11
3796;BME280;1913;50.660;7.834;2023-07-20T11:16:01;154650.53;;;26.73;36.97
3796;BME280;1913;50.660;7.834;2023-07-20T11:18:28;154609.91;;;26.57;35.13
3796;BME280;1913;50.660;7.834;2023-07-20T11:20:54;154568.03;;;26.40;36.34
3796;BME280;1913;50.660;7.834;2023-07-20T11:23:19;154606.13;;;26.55;36.59
3796;BME280;1913;50.660;7.834;2023-07-20T11:25:45;154599.78;;;26.53;35.62
3796;BME280;1913;50.660;7.834;2023-07-20T11:28:11;154566.72;;;26.39;35.92
3796;BME280;1913;50.660;7.834;2023-07-20T11:30:37;154446.25;;;25.91;37.19
3796;BME280;1913;50.660;7.834;2023-07-20T11:33:04;154418.38;;;25.79;36.67
3796;BME280;1913;50.660;7.834;2023-07-20T11:35:30;154027.75;;;24.22;38.71
3796;BME280;1913;50.660;7.834;2023-07-20T11:37:56;153836.44;;;23.45;40.16
3796;BME280;1913;50.660;7.834;2023-07-20T11:40:22;153859.22;;;23.54;41.48
3796;BME280;1913;50.660;7.834;2023-07-20T11:42:49;153835.19;;;23.45;42.10
3796;BME280;1913;50.660;7.834;2023-07-20T11:45:16;153809.84;;;23.34;43.87
3796;BME280;1913;50.660;7.834;2023-07-20T11:47:43;153812.38;;;23.35;42.97
3796;BME280;1913;50.660;7.834;2023-07-20T11:50:09;153774.38;;;23.20;44.98
3796;BME280;1913;50.660;7.834;2023-07-20T11:52:34;153802.22;;;23.31;45.64
3796;BME280;1913;50.660;7.834;2023-07-20T11:55:00;153813.63;;;23.36;46.24
3796;BME280;1913;50.660;7.834;2023-07-20T11:57:26;154018.88;;;24.19;43.94
3796;BME280;1913;50.660;7.834;2023-07-20T11:59:55;154282.63;;;25.25;40.54
3796;BME280;1913;50.660;7.834;2023-07-20T12:02:22;154234.41;;;25.05;40.64
3796;BME280;1913;50.660;7.834;2023-07-20T12:04:50;154381.50;;;25.65;39.23
3796;BME280;1913;50.660;7.834;2023-07-20T12:07:16;154535.06;;;26.26;38.95
3796;BME280;1913;50.660;7.834;2023-07-20T12:09:42;154606.13;;;26.55;37.66
3796;BME280;1913;50.660;7.834;2023-07-20T12:12:10;154233.16;;;25.05;39.13
3796;BME280;1913;50.660;7.834;2023-07-20T12:14:38;154229.31;;;25.03;40.92
3796;BME280;1913;50.660;7.834;2023-07-20T12:17:04;154162.16;;;24.76;42.27
3796;BME280;1913;50.660;7.834;2023-07-20T12:19:29;154160.84;;;24.76;41.96
3796;BME280;1913;50.660;7.834;2023-07-20T12:21:57;154253.47;;;25.13;40.93
3796;BME280;1913;50.660;7.834;2023-07-20T12:24:24;154249.69;;;25.12;39.51
3796;BME280;1913;50.660;7.834;2023-07-20T12:26:56;154197.66;;;24.91;39.24
3796;BME280;1913;50.660;7.834;2023-07-20T12:29:21;154187.47;;;24.87;39.41
3796;BME280;1913;50.660;7.834;2023-07-20T12:31:47;154212.84;;;24.97;38.47
3796;BME280;1913;50.660;7.834;2023-07-20T12:34:12;154424.69;;;25.82;38.86
3796;BME280;1913;50.660;7.834;2023-07-20T12:36:37;154623.91;;;26.62;37.54
3796;BME280;1913;50.660;7.834;2023-07-20T12:39:03;154568.03;;;26.40;37.47
3796;BME280;1913;50.660;7.834;2023-07-20T12:41:28;154519.81;;;26.20;35.41
3796;BME280;1913;50.660;7.834;2023-07-20T12:43:54;154546.44;;;26.31;35.29
3796;BME280;1913;50.660;7.834;2023-07-20T12:46:23;154470.31;;;26.00;35.56
3796;BME280;1913;50.660;7.834;2023-07-20T12:48:48;154366.31;;;25.59;37.30
3796;BME280;1913;50.660;7.834;2023-07-20T12:51:14;154505.91;;;26.15;36.35
3796;BME280;1913;50.660;7.834;2023-07-20T12:53:39;154481.78;;;26.05;35.19
3796;BME280;1913;50.660;7.834;2023-07-20T12:56:05;154474.16;;;26.02;35.64
3796;BME280;1913;50.660;7.834;2023-07-20T12:58:31;154451.31;;;25.93;34.70
3796;BME280;1913;50.660;7.834;2023-07-20T13:00:56;154411.97;;;25.77;35.63
3796;BME280;1913;50.660;7.834;2023-07-20T13:03:22;154401.81;;;25.73;35.49
3796;BME280;1913;50.660;7.834;2023-07-20T13:05:47;154285.19;;;25.26;36.20
3796;BME280;1913;50.660;7.834;2023-07-20T13:08:13;154391.69;;;25.69;37.36
3796;BME280;1913;50.660;7.834;2023-07-20T13:10:38;154462.75;;;25.97;38.26
3796;BME280;1913;50.660;7.834;2023-07-20T13:13:04;154356.19;;;25.54;38.70
3796;BME280;1913;50.660;7.834;2023-07-20T13:15:31;154399.25;;;25.72;38.68
3796;BME280;1913;50.660;7.834;2023-07-20T13:17:57;154395.47;;;25.70;39.05